createdAt,value
2018-02-25T00:00:13.316Z,1017.14
2018-02-25T00:01:13.281Z,1017.17
2018-02-25T00:02:13.243Z,1017.2
2018-02-25T00:03:13.209Z,1017.16
2018-02-25T00:04:13.173Z,1017.21
2018-02-25T00:05:13.140Z,1017.21
2018-02-25T00:06:13.100Z,1017.25
2018-02-25T00:07:13.065Z,1017.28
2018-02-25T00:08:13.029Z,1017.33
2018-02-25T00:09:13.017Z,1017.34
2018-02-25T00:10:12.958Z,1017.34
2018-02-25T00:11:12.922Z,1017.3
2018-02-25T00:12:12.886Z,1017.32
2018-02-25T00:13:12.858Z,1017.45
2018-02-25T00:14:12.824Z,1017.38
2018-02-25T00:15:12.779Z,1017.42
2018-02-25T00:16:12.743Z,1017.42
2018-02-25T00:17:12.707Z,1017.47
2018-02-25T00:18:12.670Z,1017.41
2018-02-25T00:19:12.635Z,1017.41
2018-02-25T00:20:12.601Z,1017.42
2018-02-25T00:21:12.563Z,1017.46
2018-02-25T00:22:12.526Z,1017.44
2018-02-25T00:23:12.493Z,1017.41
2018-02-25T00:24:12.457Z,1017.46
2018-02-25T00:25:12.421Z,1017.38
2018-02-25T00:26:12.385Z,1017.43
2018-02-25T00:27:12.349Z,1017.48
2018-02-25T00:28:12.313Z,1017.48
2018-02-25T00:29:12.277Z,1017.5
2018-02-25T00:30:12.240Z,1017.49
2018-02-25T00:31:12.204Z,1017.53
2018-02-25T00:32:12.168Z,1017.5
2018-02-25T00:33:12.133Z,1017.55
2018-02-25T00:34:12.097Z,1017.51
2018-02-25T00:35:12.061Z,1017.55
2018-02-25T00:36:12.024Z,1017.53
2018-02-25T00:37:11.988Z,1017.51
2018-02-25T00:38:11.952Z,1017.5
2018-02-25T00:39:11.917Z,1017.58
2018-02-25T00:40:11.880Z,1017.56
2018-02-25T00:41:11.845Z,1017.61
2018-02-25T00:42:11.809Z,1017.63
2018-02-25T00:43:11.772Z,1017.55
2018-02-25T00:44:11.736Z,1017.61
2018-02-25T00:45:11.700Z,1017.64
2018-02-25T00:46:11.664Z,1017.64
2018-02-25T00:47:11.679Z,1017.68
2018-02-25T00:48:11.592Z,1017.58
2018-02-25T00:49:11.557Z,1017.57
2018-02-25T00:50:11.521Z,1017.62
2018-02-25T00:51:11.484Z,1017.6
2018-02-25T00:52:11.448Z,1017.55
2018-02-25T00:53:11.414Z,1017.43
2018-02-25T00:54:11.375Z,1017.5
2018-02-25T00:55:11.338Z,1017.49
2018-02-25T00:56:11.308Z,1017.47
2018-02-25T00:57:11.267Z,1017.48
2018-02-25T00:58:11.231Z,1017.45
2018-02-25T00:59:11.195Z,1017.46
2018-02-25T01:00:11.160Z,1017.46
2018-02-25T01:01:11.121Z,1017.41
2018-02-25T01:02:11.086Z,1017.58
2018-02-25T01:03:11.052Z,1017.61
2018-02-25T01:04:11.016Z,1017.68
2018-02-25T01:05:10.982Z,1017.66
2018-02-25T01:06:10.943Z,1017.66
2018-02-25T01:07:10.907Z,1017.65
2018-02-25T01:08:10.870Z,1017.59
2018-02-25T01:09:10.839Z,1017.6
2018-02-25T01:10:10.798Z,1017.62
2018-02-25T01:11:10.763Z,1017.67
2018-02-25T01:12:10.725Z,1017.64
2018-02-25T01:13:10.698Z,1017.59
2018-02-25T01:14:10.655Z,1017.61
2018-02-25T01:15:10.618Z,1017.54
2018-02-25T01:16:10.582Z,1017.57
2018-02-25T01:17:10.545Z,1017.6
2018-02-25T01:18:10.511Z,1017.68
2018-02-25T01:19:10.472Z,1017.64
2018-02-25T01:20:10.437Z,1017.62
2018-02-25T01:21:10.400Z,1017.63
2018-02-25T01:22:10.363Z,1017.63
2018-02-25T01:23:10.327Z,1017.71
2018-02-25T01:24:10.291Z,1017.72
2018-02-25T01:25:10.254Z,1017.72
2018-02-25T01:26:10.219Z,1017.65
2018-02-25T01:27:10.187Z,1017.71
2018-02-25T01:28:10.146Z,1017.64
2018-02-25T01:29:10.115Z,1017.69
2018-02-25T01:30:10.074Z,1017.65
2018-02-25T01:31:10.038Z,1017.72
2018-02-25T01:32:10.002Z,1017.68
2018-02-25T01:33:09.965Z,1017.71
2018-02-25T01:34:09.928Z,1017.72
2018-02-25T01:35:09.892Z,1017.68
2018-02-25T01:36:09.856Z,1017.7
2018-02-25T01:37:09.818Z,1017.69
2018-02-25T01:38:09.783Z,1017.74
2018-02-25T01:39:09.746Z,1017.7
2018-02-25T01:40:09.710Z,1017.71
2018-02-25T01:41:09.674Z,1017.69
2018-02-25T01:42:09.636Z,1017.73
2018-02-25T01:43:09.604Z,1017.65
2018-02-25T01:44:09.564Z,1017.72
2018-02-25T01:45:09.528Z,1017.69
2018-02-25T01:46:09.491Z,1017.71
2018-02-25T01:47:09.456Z,1017.73
2018-02-25T01:48:09.419Z,1017.74
2018-02-25T01:49:09.383Z,1017.71
2018-02-25T01:50:09.346Z,1017.76
2018-02-25T01:51:09.309Z,1017.78
2018-02-25T01:52:09.273Z,1017.74
2018-02-25T01:53:09.237Z,1017.77
2018-02-25T01:54:09.202Z,1017.75
2018-02-25T01:55:09.163Z,1017.78
2018-02-25T01:56:09.126Z,1017.79
2018-02-25T01:57:09.091Z,1017.81
2018-02-25T01:58:09.056Z,1017.79
2018-02-25T01:59:09.018Z,1017.79
2018-02-25T02:00:08.984Z,1017.81
2018-02-25T02:01:08.945Z,1017.78
2018-02-25T02:02:08.909Z,1017.81
2018-02-25T02:03:08.873Z,1017.79
2018-02-25T02:04:08.837Z,1017.81
2018-02-25T02:05:08.800Z,1017.82
2018-02-25T02:06:08.762Z,1017.87
2018-02-25T02:07:08.726Z,1017.79
2018-02-25T02:08:08.690Z,1017.79
2018-02-25T02:09:08.654Z,1017.79
2018-02-25T02:10:08.616Z,1017.8
2018-02-25T02:11:08.580Z,1017.81
2018-02-25T02:12:08.544Z,1017.82
2018-02-25T02:13:08.506Z,1017.8
2018-02-25T02:14:08.471Z,1017.78
2018-02-25T02:15:08.434Z,1017.83
2018-02-25T02:16:08.400Z,1017.86
2018-02-25T02:17:08.360Z,1017.83
2018-02-25T02:18:08.324Z,1017.81
2018-02-25T02:19:08.287Z,1017.84
2018-02-25T02:20:08.251Z,1017.84
2018-02-25T02:21:08.214Z,1017.78
2018-02-25T02:22:08.177Z,1017.83
2018-02-25T02:23:08.141Z,1017.86
2018-02-25T02:24:08.105Z,1017.81
2018-02-25T02:25:08.068Z,1017.8
2018-02-25T02:26:08.032Z,1017.84
2018-02-25T02:27:07.995Z,1017.81
2018-02-25T02:28:07.957Z,1017.8
2018-02-25T02:29:07.922Z,1017.79
2018-02-25T02:30:07.885Z,1017.82
2018-02-25T02:31:07.850Z,1017.79
2018-02-25T02:32:07.812Z,1017.81
2018-02-25T02:33:07.775Z,1017.81
2018-02-25T02:34:07.739Z,1017.85
2018-02-25T02:35:07.702Z,1017.77
2018-02-25T02:36:07.664Z,1017.82
2018-02-25T02:37:07.628Z,1017.8
2018-02-25T02:38:07.592Z,1017.8
2018-02-25T02:39:07.555Z,1017.82
2018-02-25T02:40:07.516Z,1017.76
2018-02-25T02:41:07.480Z,1017.8
2018-02-25T02:42:07.445Z,1017.79
2018-02-25T02:43:07.407Z,1017.79
2018-02-25T02:44:07.372Z,1017.78
2018-02-25T02:45:07.335Z,1017.8
2018-02-25T02:46:07.299Z,1017.69
2018-02-25T02:47:07.262Z,1017.75
2018-02-25T02:48:07.227Z,1017.78
2018-02-25T02:49:07.189Z,1017.78
2018-02-25T02:50:07.152Z,1017.74
2018-02-25T02:51:07.115Z,1017.75
2018-02-25T02:52:07.079Z,1017.76
2018-02-25T02:53:07.043Z,1017.74
2018-02-25T02:54:07.004Z,1017.72
2018-02-25T02:55:06.968Z,1017.74
2018-02-25T02:56:06.930Z,1017.74
2018-02-25T02:57:06.893Z,1017.7
2018-02-25T02:58:06.857Z,1017.75
2018-02-25T02:59:06.820Z,1017.7
2018-02-25T03:00:06.784Z,1017.7
2018-02-25T03:01:06.746Z,1017.74
2018-02-25T03:02:06.709Z,1017.74
2018-02-25T03:03:06.672Z,1017.74
2018-02-25T03:04:06.637Z,1017.8
2018-02-25T03:05:06.599Z,1017.8
2018-02-25T03:06:06.562Z,1017.81
2018-02-25T03:07:06.526Z,1017.81
2018-02-25T03:08:06.489Z,1017.91
2018-02-25T03:09:06.450Z,1017.9
2018-02-25T03:10:06.415Z,1017.91
2018-02-25T03:11:06.382Z,1017.89
2018-02-25T03:12:06.342Z,1017.86
2018-02-25T03:13:06.304Z,1017.85
2018-02-25T03:14:06.270Z,1017.87
2018-02-25T03:15:06.230Z,1017.88
2018-02-25T03:16:06.194Z,1017.9
2018-02-25T03:17:06.156Z,1017.89
2018-02-25T03:18:06.121Z,1017.89
2018-02-25T03:19:06.082Z,1017.95
2018-02-25T03:20:06.045Z,1017.92
2018-02-25T03:21:06.010Z,1017.96
2018-02-25T03:22:05.978Z,1017.98
2018-02-25T03:23:05.934Z,1017.95
2018-02-25T03:24:05.899Z,1017.96
2018-02-25T03:25:05.862Z,1018.01
2018-02-25T03:26:05.827Z,1017.96
2018-02-25T03:27:05.788Z,1018.04
2018-02-25T03:28:05.751Z,1018.01
2018-02-25T03:29:05.715Z,1018.01
2018-02-25T03:30:05.680Z,1018.02
2018-02-25T03:31:05.640Z,1017.99
2018-02-25T03:32:05.603Z,1017.97
2018-02-25T03:33:05.566Z,1018
2018-02-25T03:34:05.528Z,1018.03
2018-02-25T03:35:05.492Z,1018
2018-02-25T03:36:05.455Z,1018.02
2018-02-25T03:37:05.417Z,1018.05
2018-02-25T03:38:05.380Z,1018.09
2018-02-25T03:39:05.344Z,1018.17
2018-02-25T03:40:05.307Z,1018.07
2018-02-25T03:41:05.269Z,1018.12
2018-02-25T03:42:05.232Z,1018.14
2018-02-25T03:43:05.195Z,1018.12
2018-02-25T03:44:05.158Z,1018.14
2018-02-25T03:45:05.121Z,1018.15
2018-02-25T03:46:05.089Z,1018.12
2018-02-25T03:47:05.046Z,1018.15
2018-02-25T03:48:05.011Z,1018.14
2018-02-25T03:49:04.974Z,1018.2
2018-02-25T03:50:04.936Z,1018.2
2018-02-25T03:51:04.901Z,1018.32
2018-02-25T03:52:04.862Z,1018.28
2018-02-25T03:53:04.826Z,1018.29
2018-02-25T03:54:04.789Z,1018.27
2018-02-25T03:55:04.752Z,1018.3
2018-02-25T03:56:04.713Z,1018.28
2018-02-25T03:57:04.677Z,1018.3
2018-02-25T03:58:04.643Z,1018.38
2018-02-25T03:59:04.604Z,1018.39
2018-02-25T04:00:04.569Z,1018.4
2018-02-25T04:01:04.531Z,1018.41
2018-02-25T04:02:04.492Z,1018.36
2018-02-25T04:03:04.454Z,1018.42
2018-02-25T04:04:04.417Z,1018.41
2018-02-25T04:05:04.379Z,1018.4
2018-02-25T04:06:04.343Z,1018.39
2018-02-25T04:07:04.313Z,1018.44
2018-02-25T04:08:04.275Z,1018.4
2018-02-25T04:09:04.263Z,1018.4
2018-02-25T04:10:04.198Z,1018.47
2018-02-25T04:11:04.164Z,1018.45
2018-02-25T04:12:04.133Z,1018.5
2018-02-25T04:13:04.081Z,1018.46
2018-02-25T04:14:04.045Z,1018.53
2018-02-25T04:15:04.028Z,1018.46
2018-02-25T04:16:04.003Z,1018.5
2018-02-25T04:17:03.947Z,1018.54
2018-02-25T04:18:03.913Z,1018.55
2018-02-25T04:19:03.861Z,1018.56
2018-02-25T04:20:03.822Z,1018.58
2018-02-25T04:21:03.814Z,1018.57
2018-02-25T04:22:03.747Z,1018.59
2018-02-25T04:23:03.711Z,1018.58
2018-02-25T04:24:03.674Z,1018.56
2018-02-25T04:25:03.680Z,1018.55
2018-02-25T04:26:03.598Z,1018.62
2018-02-25T04:27:03.562Z,1018.6
2018-02-25T04:28:03.526Z,1018.63
2018-02-25T04:29:03.488Z,1018.62
2018-02-25T04:30:03.451Z,1018.62
2018-02-25T04:31:03.414Z,1018.64
2018-02-25T04:32:03.376Z,1018.63
2018-02-25T04:33:03.339Z,1018.65
2018-02-25T04:34:03.305Z,1018.68
2018-02-25T04:35:03.264Z,1018.68
2018-02-25T04:36:03.227Z,1018.64
2018-02-25T04:37:03.190Z,1018.7
2018-02-25T04:38:03.151Z,1018.7
2018-02-25T04:39:03.133Z,1018.64
2018-02-25T04:40:03.080Z,1018.78
2018-02-25T04:41:03.045Z,1018.74
2018-02-25T04:42:03.003Z,1018.77
2018-02-25T04:43:02.965Z,1018.79
2018-02-25T04:44:02.927Z,1018.79
2018-02-25T04:45:02.891Z,1018.81
2018-02-25T04:46:02.854Z,1018.83
2018-02-25T04:47:02.816Z,1018.81
2018-02-25T04:48:02.779Z,1018.79
2018-02-25T04:49:02.741Z,1018.79
2018-02-25T04:50:02.704Z,1018.82
2018-02-25T04:51:02.665Z,1018.81
2018-02-25T04:52:02.629Z,1018.86
2018-02-25T04:53:02.592Z,1018.83
2018-02-25T04:54:02.554Z,1018.83
2018-02-25T04:55:02.516Z,1018.86
2018-02-25T04:56:02.480Z,1018.84
2018-02-25T04:57:02.445Z,1018.84
2018-02-25T04:58:02.404Z,1018.89
2018-02-25T04:59:02.367Z,1018.9
2018-02-25T05:00:02.331Z,1018.87
2018-02-25T05:01:02.310Z,1018.89
2018-02-25T05:02:02.255Z,1018.93
2018-02-25T05:03:02.218Z,1018.84
2018-02-25T05:04:02.181Z,1018.86
2018-02-25T05:05:02.143Z,1018.87
2018-02-25T05:06:02.104Z,1018.84
2018-02-25T05:07:02.074Z,1018.84
2018-02-25T05:08:02.031Z,1018.82
2018-02-25T05:09:01.993Z,1018.87
2018-02-25T05:10:01.956Z,1018.74
2018-02-25T05:11:01.922Z,1018.81
2018-02-25T05:12:01.882Z,1018.77
2018-02-25T05:13:01.938Z,1018.76
2018-02-25T05:14:01.807Z,1018.77
2018-02-25T05:15:01.769Z,1018.79
2018-02-25T05:16:01.958Z,1018.75
2018-02-25T05:17:01.694Z,1018.78
2018-02-25T05:18:01.656Z,1018.79
2018-02-25T05:19:01.619Z,1018.79
2018-02-25T05:20:01.585Z,1018.82
2018-02-25T05:21:01.542Z,1018.79
2018-02-25T05:22:01.506Z,1018.82
2018-02-25T05:23:01.469Z,1018.78
2018-02-25T05:24:01.430Z,1018.77
2018-02-25T05:25:01.392Z,1018.76
2018-02-25T05:26:01.356Z,1018.78
2018-02-25T05:27:01.317Z,1018.76
2018-02-25T05:28:01.280Z,1018.78
2018-02-25T05:29:01.246Z,1018.82
2018-02-25T05:30:01.205Z,1018.79
2018-02-25T05:31:01.166Z,1018.82
2018-02-25T05:32:01.129Z,1018.78
2018-02-25T05:33:01.093Z,1018.77
2018-02-25T05:34:01.054Z,1018.79
2018-02-25T05:35:01.021Z,1018.78
2018-02-25T05:36:00.979Z,1018.73
2018-02-25T05:37:00.942Z,1018.75
2018-02-25T05:38:00.903Z,1018.74
2018-02-25T05:39:00.866Z,1018.73
2018-02-25T05:40:00.829Z,1018.78
2018-02-25T05:41:00.791Z,1018.74
2018-02-25T05:42:00.752Z,1018.76
2018-02-25T05:43:00.716Z,1018.72
2018-02-25T05:44:00.678Z,1018.71
2018-02-25T05:45:00.644Z,1018.68
2018-02-25T05:46:00.603Z,1018.7
2018-02-25T05:47:00.565Z,1018.71
2018-02-25T05:48:00.526Z,1018.72
2018-02-25T05:49:00.489Z,1018.7
2018-02-25T05:50:00.453Z,1018.78
2018-02-25T05:51:00.414Z,1018.74
2018-02-25T05:52:00.385Z,1018.77
2018-02-25T05:53:00.340Z,1018.81
2018-02-25T05:54:00.302Z,1018.85
2018-02-25T05:55:00.270Z,1018.83
2018-02-25T05:56:00.226Z,1018.85
2018-02-25T05:57:00.190Z,1018.86
2018-02-25T05:58:00.151Z,1018.84
2018-02-25T05:59:00.116Z,1018.82
2018-02-25T06:00:00.078Z,1018.85
2018-02-25T06:01:00.040Z,1018.86
2018-02-25T06:02:00.000Z,1018.86
2018-02-25T06:02:59.964Z,1018.87
2018-02-25T06:03:59.926Z,1018.82
2018-02-25T06:04:59.887Z,1018.86
2018-02-25T06:05:59.850Z,1018.85
2018-02-25T06:06:59.812Z,1018.89
2018-02-25T06:07:59.775Z,1018.89
2018-02-25T06:08:59.736Z,1018.88
2018-02-25T06:09:59.699Z,1018.91
2018-02-25T06:10:59.661Z,1018.88
2018-02-25T06:11:59.623Z,1018.87
2018-02-25T06:12:59.586Z,1018.84
2018-02-25T06:13:59.548Z,1018.86
2018-02-25T06:14:59.509Z,1018.84
2018-02-25T06:15:59.472Z,1018.92
2018-02-25T06:16:59.435Z,1018.93
2018-02-25T06:17:59.394Z,1018.89
2018-02-25T06:18:59.357Z,1018.9
2018-02-25T06:19:59.320Z,1018.89
2018-02-25T06:20:59.282Z,1018.93
2018-02-25T06:21:59.243Z,1018.94
2018-02-25T06:22:59.209Z,1018.96
2018-02-25T06:23:59.170Z,1018.97
2018-02-25T06:24:59.131Z,1019
2018-02-25T06:25:59.093Z,1019.01
2018-02-25T06:26:59.057Z,1019.04
2018-02-25T06:27:59.018Z,1019.1
2018-02-25T06:28:59.047Z,1019.04
2018-02-25T06:29:58.943Z,1019.08
2018-02-25T06:30:58.904Z,1019.07
2018-02-25T06:31:58.872Z,1019.04
2018-02-25T06:32:58.828Z,1019.12
2018-02-25T06:33:58.790Z,1019.1
2018-02-25T06:34:58.753Z,1019.08
2018-02-25T06:35:58.716Z,1019.1
2018-02-25T06:36:58.678Z,1019.17
2018-02-25T06:37:58.641Z,1019.18
2018-02-25T06:38:58.605Z,1019.11
2018-02-25T06:39:58.562Z,1019.14
2018-02-25T06:40:58.527Z,1019.17
2018-02-25T06:41:58.495Z,1019.16
2018-02-25T06:42:58.451Z,1019.17
2018-02-25T06:43:58.413Z,1019.17
2018-02-25T06:44:58.376Z,1019.19
2018-02-25T06:45:58.339Z,1019.15
2018-02-25T06:46:58.300Z,1019.18
2018-02-25T06:47:58.262Z,1019.19
2018-02-25T06:48:58.224Z,1019.25
2018-02-25T06:49:58.187Z,1019.26
2018-02-25T06:50:58.148Z,1019.29
2018-02-25T06:51:58.110Z,1019.27
2018-02-25T06:52:58.123Z,1019.27
2018-02-25T06:53:58.036Z,1019.27
2018-02-25T06:54:58.001Z,1019.28
2018-02-25T06:55:57.962Z,1019.3
2018-02-25T06:56:57.923Z,1019.29
2018-02-25T06:57:57.886Z,1019.35
2018-02-25T06:58:57.847Z,1019.37
2018-02-25T06:59:57.812Z,1019.35
2018-02-25T07:00:57.772Z,1019.38
2018-02-25T07:01:57.734Z,1019.29
2018-02-25T07:02:57.695Z,1019.33
2018-02-25T07:03:57.658Z,1019.34
2018-02-25T07:04:57.621Z,1019.3
2018-02-25T07:05:57.582Z,1019.33
2018-02-25T07:06:57.544Z,1019.38
2018-02-25T07:07:57.565Z,1019.32
2018-02-25T07:08:57.471Z,1019.39
2018-02-25T07:09:57.432Z,1019.39
2018-02-25T07:10:57.394Z,1019.37
2018-02-25T07:11:57.357Z,1019.36
2018-02-25T07:12:57.318Z,1019.37
2018-02-25T07:13:57.281Z,1019.39
2018-02-25T07:14:57.245Z,1019.44
2018-02-25T07:15:57.208Z,1019.42
2018-02-25T07:16:57.170Z,1019.45
2018-02-25T07:17:57.130Z,1019.42
2018-02-25T07:18:57.095Z,1019.45
2018-02-25T07:19:57.057Z,1019.47
2018-02-25T07:20:57.019Z,1019.43
2018-02-25T07:21:56.982Z,1019.49
2018-02-25T07:22:56.946Z,1019.47
2018-02-25T07:23:56.907Z,1019.5
2018-02-25T07:24:56.870Z,1019.49
2018-02-25T07:25:56.833Z,1019.44
2018-02-25T07:26:56.797Z,1019.47
2018-02-25T07:27:56.757Z,1019.56
2018-02-25T07:28:56.721Z,1019.51
2018-02-25T07:29:56.684Z,1019.55
2018-02-25T07:30:56.651Z,1019.52
2018-02-25T07:31:56.612Z,1019.51
2018-02-25T07:32:56.571Z,1019.57
2018-02-25T07:33:56.542Z,1019.53
2018-02-25T07:34:56.497Z,1019.48
2018-02-25T07:35:56.462Z,1019.5
2018-02-25T07:36:56.426Z,1019.42
2018-02-25T07:37:56.386Z,1019.48
2018-02-25T07:38:56.347Z,1019.43
2018-02-25T07:39:56.310Z,1019.43
2018-02-25T07:40:56.273Z,1019.43
2018-02-25T07:41:56.240Z,1019.36
2018-02-25T07:42:56.206Z,1019.4
2018-02-25T07:43:56.162Z,1019.4
2018-02-25T07:44:56.125Z,1019.4
2018-02-25T07:45:56.087Z,1019.38
2018-02-25T07:46:56.050Z,1019.45
2018-02-25T07:47:56.013Z,1019.4
2018-02-25T07:48:55.976Z,1019.46
2018-02-25T07:49:55.958Z,1019.44
2018-02-25T07:50:55.902Z,1019.47
2018-02-25T07:51:55.865Z,1019.48
2018-02-25T07:52:55.828Z,1019.53
2018-02-25T07:53:55.791Z,1019.48
2018-02-25T07:54:55.753Z,1019.46
2018-02-25T07:55:55.739Z,1019.49
2018-02-25T07:56:55.678Z,1019.53
2018-02-25T07:57:55.642Z,1019.53
2018-02-25T07:58:55.606Z,1019.46
2018-02-25T07:59:55.570Z,1019.5
2018-02-25T08:00:55.531Z,1019.48
2018-02-25T08:01:55.496Z,1019.41
2018-02-25T08:02:55.458Z,1019.46
2018-02-25T08:03:55.420Z,1019.54
2018-02-25T08:04:55.384Z,1019.47
2018-02-25T08:05:55.348Z,1019.54
2018-02-25T08:06:55.310Z,1019.49
2018-02-25T08:07:55.275Z,1019.49
2018-02-25T08:08:55.236Z,1019.49
2018-02-25T08:09:55.207Z,1019.54
2018-02-25T08:10:55.281Z,1019.52
2018-02-25T08:11:55.134Z,1019.5
2018-02-25T08:12:55.094Z,1019.55
2018-02-25T08:13:55.104Z,1019.57
2018-02-25T08:14:55.015Z,1019.51
2018-02-25T08:15:54.984Z,1019.52
2018-02-25T08:16:54.942Z,1019.49
2018-02-25T08:17:54.910Z,1019.58
2018-02-25T08:18:54.867Z,1019.57
2018-02-25T08:19:54.831Z,1019.56
2018-02-25T08:20:54.794Z,1019.6
2018-02-25T08:21:54.759Z,1019.65
2018-02-25T08:22:54.720Z,1019.56
2018-02-25T08:23:54.686Z,1019.6
2018-02-25T08:24:54.648Z,1019.63
2018-02-25T08:25:54.611Z,1019.63
2018-02-25T08:26:54.574Z,1019.6
2018-02-25T08:27:54.537Z,1019.57
2018-02-25T08:28:54.501Z,1019.62
2018-02-25T08:29:54.465Z,1019.52
2018-02-25T08:30:54.427Z,1019.6
2018-02-25T08:31:54.395Z,1019.6
2018-02-25T08:32:54.358Z,1019.67
2018-02-25T08:33:54.320Z,1019.72
2018-02-25T08:34:54.281Z,1019.65
2018-02-25T08:35:54.245Z,1019.69
2018-02-25T08:36:54.437Z,1019.61
2018-02-25T08:37:54.225Z,1019.7
2018-02-25T08:38:54.136Z,1019.65
2018-02-25T08:39:54.099Z,1019.64
2018-02-25T08:40:54.062Z,1019.71
2018-02-25T08:41:54.027Z,1019.72
2018-02-25T08:42:53.989Z,1019.7
2018-02-25T08:43:53.955Z,1019.77
2018-02-25T08:44:53.915Z,1019.58
2018-02-25T08:45:53.883Z,1019.7
2018-02-25T08:46:53.848Z,1019.64
2018-02-25T08:47:53.807Z,1019.67
2018-02-25T08:48:53.771Z,1019.65
2018-02-25T08:49:53.735Z,1019.62
2018-02-25T08:50:53.697Z,1019.69
2018-02-25T08:51:53.661Z,1019.71
2018-02-25T08:52:53.626Z,1019.75
2018-02-25T08:53:53.589Z,1019.75
2018-02-25T08:54:53.553Z,1019.75
2018-02-25T08:55:53.516Z,1019.71
2018-02-25T08:56:53.483Z,1019.71
2018-02-25T08:57:53.444Z,1019.72
2018-02-25T08:58:53.407Z,1019.69
2018-02-25T08:59:53.371Z,1019.72
2018-02-25T09:00:53.334Z,1019.67
2018-02-25T09:01:53.300Z,1019.67
2018-02-25T09:02:53.263Z,1019.79
2018-02-25T09:03:53.227Z,1019.72
2018-02-25T09:04:53.191Z,1019.72
2018-02-25T09:05:53.155Z,1019.67
2018-02-25T09:06:53.119Z,1019.67
2018-02-25T09:07:53.085Z,1019.73
2018-02-25T09:08:53.047Z,1019.64
2018-02-25T09:09:53.009Z,1019.73
2018-02-25T09:10:52.974Z,1019.76
2018-02-25T09:11:53.011Z,1019.75
2018-02-25T09:12:52.903Z,1019.71
2018-02-25T09:13:52.867Z,1019.74
2018-02-25T09:14:52.831Z,1019.7
2018-02-25T09:15:52.795Z,1019.74
2018-02-25T09:16:52.758Z,1019.73
2018-02-25T09:17:52.722Z,1019.67
2018-02-25T09:18:52.687Z,1019.79
2018-02-25T09:19:52.652Z,1019.68
2018-02-25T09:20:52.615Z,1019.74
2018-02-25T09:21:52.580Z,1019.72
2018-02-25T09:22:52.545Z,1019.68
2018-02-25T09:23:52.512Z,1019.64
2018-02-25T09:24:52.474Z,1019.63
2018-02-25T09:25:52.436Z,1019.66
2018-02-25T09:26:52.402Z,1019.55
2018-02-25T09:27:52.366Z,1019.71
2018-02-25T09:28:52.330Z,1019.6
2018-02-25T09:29:52.298Z,1019.6
2018-02-25T09:30:52.260Z,1019.62
2018-02-25T09:31:52.224Z,1019.6
2018-02-25T09:32:52.190Z,1019.61
2018-02-25T09:33:52.154Z,1019.5
2018-02-25T09:34:52.120Z,1019.59
2018-02-25T09:35:52.090Z,1019.51
2018-02-25T09:36:52.048Z,1019.57
2018-02-25T09:37:52.014Z,1019.62
2018-02-25T09:38:51.977Z,1019.58
2018-02-25T09:39:51.942Z,1019.58
2018-02-25T09:40:51.908Z,1019.68
2018-02-25T09:41:51.871Z,1019.67
2018-02-25T09:42:51.837Z,1019.57
2018-02-25T09:43:51.801Z,1019.61
2018-02-25T09:44:51.766Z,1019.57
2018-02-25T09:45:51.734Z,1019.62
2018-02-25T09:46:51.695Z,1019.53
2018-02-25T09:47:51.670Z,1019.7
2018-02-25T09:48:51.625Z,1019.57
2018-02-25T09:49:51.593Z,1019.55
2018-02-25T09:50:51.556Z,1019.55
2018-02-25T09:51:51.522Z,1019.48
2018-02-25T09:52:51.486Z,1019.57
2018-02-25T09:53:51.449Z,1019.62
2018-02-25T09:54:51.413Z,1019.6
2018-02-25T09:55:51.378Z,1019.66
2018-02-25T09:56:51.344Z,1019.62
2018-02-25T09:57:51.307Z,1019.63
2018-02-25T09:58:51.273Z,1019.61
2018-02-25T09:59:51.236Z,1019.62
2018-02-25T10:00:51.202Z,1019.59
2018-02-25T10:01:51.166Z,1019.6
2018-02-25T10:02:51.134Z,1019.56
2018-02-25T10:03:51.096Z,1019.59
2018-02-25T10:04:51.061Z,1019.61
2018-02-25T10:05:51.024Z,1019.6
2018-02-25T10:06:50.990Z,1019.58
2018-02-25T10:07:50.956Z,1019.64
2018-02-25T10:08:50.922Z,1019.62
2018-02-25T10:09:51.033Z,1019.58
2018-02-25T10:10:50.859Z,1019.54
2018-02-25T10:11:50.818Z,1019.43
2018-02-25T10:12:50.778Z,1019.59
2018-02-25T10:13:50.745Z,1019.55
2018-02-25T10:14:50.709Z,1019.53
2018-02-25T10:15:50.673Z,1019.55
2018-02-25T10:16:50.638Z,1019.55
2018-02-25T10:17:50.602Z,1019.54
2018-02-25T10:18:50.568Z,1019.52
2018-02-25T10:19:50.533Z,1019.49
2018-02-25T10:20:50.497Z,1019.49
2018-02-25T10:21:50.461Z,1019.52
2018-02-25T10:22:50.427Z,1019.49
2018-02-25T10:23:50.391Z,1019.44
2018-02-25T10:24:50.358Z,1019.51
2018-02-25T10:25:50.321Z,1019.47
2018-02-25T10:26:50.285Z,1019.41
2018-02-25T10:27:50.250Z,1019.49
2018-02-25T10:28:50.216Z,1019.48
2018-02-25T10:29:50.182Z,1019.49
2018-02-25T10:30:50.145Z,1019.54
2018-02-25T10:31:50.111Z,1019.45
2018-02-25T10:32:50.076Z,1019.49
2018-02-25T10:33:50.041Z,1019.5
2018-02-25T10:34:50.006Z,1019.49
2018-02-25T10:35:49.973Z,1019.48
2018-02-25T10:36:49.936Z,1019.41
2018-02-25T10:37:49.900Z,1019.46
2018-02-25T10:38:49.866Z,1019.46
2018-02-25T10:39:49.830Z,1019.45
2018-02-25T10:40:49.796Z,1019.4
2018-02-25T10:41:49.761Z,1019.4
2018-02-25T10:42:49.727Z,1019.36
2018-02-25T10:43:49.692Z,1019.44
2018-02-25T10:44:49.656Z,1019.33
2018-02-25T10:45:49.622Z,1019.32
2018-02-25T10:46:49.587Z,1019.24
2018-02-25T10:47:49.553Z,1019.33
2018-02-25T10:48:49.517Z,1019.39
2018-02-25T10:49:49.482Z,1019.24
2018-02-25T10:50:49.448Z,1019.27
2018-02-25T10:51:49.415Z,1019.25
2018-02-25T10:52:49.378Z,1019.3
2018-02-25T10:53:49.343Z,1019.28
2018-02-25T10:54:49.308Z,1019.2
2018-02-25T10:55:49.273Z,1019.29
2018-02-25T10:56:49.237Z,1019.38
2018-02-25T10:57:49.204Z,1019.26
2018-02-25T10:58:49.169Z,1019.28
2018-02-25T10:59:49.134Z,1019.21
2018-02-25T11:00:49.106Z,1019.29
2018-02-25T11:01:49.064Z,1019.26
2018-02-25T11:02:49.029Z,1019.14
2018-02-25T11:03:48.994Z,1019.18
2018-02-25T11:04:48.964Z,1019.23
2018-02-25T11:05:48.926Z,1019.15
2018-02-25T11:06:48.890Z,1019.12
2018-02-25T11:07:48.856Z,1019.14
2018-02-25T11:08:48.821Z,1019.22
2018-02-25T11:09:48.786Z,1019.2
2018-02-25T11:10:48.752Z,1019.1
2018-02-25T11:11:48.719Z,1019.09
2018-02-25T11:12:48.684Z,1019.12
2018-02-25T11:13:48.652Z,1019.09
2018-02-25T11:14:48.613Z,1019.08
2018-02-25T11:15:48.581Z,1019.08
2018-02-25T11:16:48.555Z,1019.02
2018-02-25T11:17:48.509Z,1019
2018-02-25T11:18:48.476Z,1018.97
2018-02-25T11:19:48.444Z,1018.98
2018-02-25T11:20:48.429Z,1018.96
2018-02-25T11:21:48.372Z,1018.98
2018-02-25T11:22:48.338Z,1018.98
2018-02-25T11:23:48.303Z,1018.95
2018-02-25T11:24:48.270Z,1018.88
2018-02-25T11:25:48.241Z,1018.96
2018-02-25T11:26:48.202Z,1018.88
2018-02-25T11:27:48.166Z,1018.89
2018-02-25T11:28:48.132Z,1018.91
2018-02-25T11:29:48.098Z,1018.89
2018-02-25T11:30:48.066Z,1018.88
2018-02-25T11:31:48.265Z,1018.92
2018-02-25T11:32:47.996Z,1018.88
2018-02-25T11:33:47.964Z,1018.85
2018-02-25T11:34:47.927Z,1018.79
2018-02-25T11:35:47.908Z,1018.82
2018-02-25T11:36:48.078Z,1018.86
2018-02-25T11:37:47.825Z,1018.67
2018-02-25T11:38:47.792Z,1018.77
2018-02-25T11:39:47.757Z,1018.74
2018-02-25T11:40:47.729Z,1018.74
2018-02-25T11:41:47.689Z,1018.69
2018-02-25T11:42:47.654Z,1018.79
2018-02-25T11:43:47.621Z,1018.57
2018-02-25T11:44:47.587Z,1018.74
2018-02-25T11:45:47.796Z,1018.67
2018-02-25T11:46:47.519Z,1018.69
2018-02-25T11:47:47.483Z,1018.74
2018-02-25T11:48:47.451Z,1018.58
2018-02-25T11:49:47.416Z,1018.6
2018-02-25T11:50:47.382Z,1018.58
2018-02-25T11:51:47.348Z,1018.54
2018-02-25T11:52:47.913Z,1018.55
2018-02-25T11:53:47.281Z,1018.58
2018-02-25T11:54:47.246Z,1018.59
2018-02-25T11:55:47.213Z,1018.56
2018-02-25T11:56:47.179Z,1018.55
2018-02-25T11:57:47.144Z,1018.53
2018-02-25T11:58:47.110Z,1018.53
2018-02-25T11:59:47.076Z,1018.54
2018-02-25T12:00:47.043Z,1018.51
2018-02-25T12:01:47.008Z,1018.45
2018-02-25T12:02:46.974Z,1018.4
2018-02-25T12:03:46.940Z,1018.43
2018-02-25T12:04:46.907Z,1018.49
2018-02-25T12:05:46.873Z,1018.52
2018-02-25T12:06:46.839Z,1018.45
2018-02-25T12:07:47.136Z,1018.48